5 day graph

You are here

Hive Data

Page: 1 of 16645  Records: 998690

Row Date Time Hive Temp Hive Humidity Outside Temp Outside Humidity Bottom Board Temp Outside Wall Temp Electronics Temp Light Levels inHG Fan Heat Cover Notes
Clear Sorted By: Light Levels ascending, Electronics Temp ascending, Outside Temp ascending, Bottom Board Temp ascending, Row descending
View 765174 Dec 30 2015 6:39:39am 40.64 53 25.52 88 25.25 26.6 39.2 0 29.58 0 0 0 NA
View 765173 Dec 30 2015 6:38:39am 40.64 54 25.52 89 25.25 26.6 39.2 0 29.58 0 0 0 NA
View 765172 Dec 30 2015 6:37:39am 40.64 53 25.52 88 25.25 26.6 39.2 0 29.58 0 0 0 NA
View 765222 Dec 30 2015 7:27:49am 40.46 53 25.7 88 24.8 26.6 39.2 0 29.6 0 0 0 NA
View 765221 Dec 30 2015 7:26:48am 40.46 53 25.7 88 24.8 26.6 39.2 0 29.6 0 0 0 NA
View 765218 Dec 30 2015 7:23:47am 40.46 54 25.7 89 24.8 26.6 39.2 0 29.6 0 0 0 NA
View 765217 Dec 30 2015 7:22:48am 40.46 54 25.7 89 24.8 26.6 39.2 0 29.59 0 0 0 NA
View 765216 Dec 30 2015 7:21:47am 40.46 53 25.7 89 24.8 26.6 39.2 0 29.6 0 0 0 NA
View 765215 Dec 30 2015 7:20:47am 40.46 53 25.7 89 24.8 26.6 39.2 0 29.59 0 0 0 NA
View 765213 Dec 30 2015 7:18:46am 40.46 54 25.7 89 24.8 26.6 39.2 0 29.59 0 0 0 NA
View 765207 Dec 30 2015 7:12:45am 40.46 52 25.7 89 24.8 26.6 39.2 0 29.59 0 0 0 NA
View 765214 Dec 30 2015 7:19:47am 40.46 54 25.7 89 25.25 26.6 39.2 0 29.59 0 0 0 NA
View 765212 Dec 30 2015 7:17:46am 40.46 54 25.7 89 25.25 26.6 39.2 0 29.6 0 0 0 NA
View 765210 Dec 30 2015 7:15:46am 40.46 54 25.7 89 25.25 26.6 39.2 0 29.59 0 0 0 NA
View 765209 Dec 30 2015 7:14:46am 40.46 54 25.7 89 25.25 26.6 39.2 0 29.59 0 0 0 NA
View 765208 Dec 30 2015 7:13:46am 40.46 53 25.7 89 25.25 26.6 39.2 0 29.59 0 0 0 NA
View 765177 Dec 30 2015 6:42:40am 40.64 54 25.7 87 25.25 26.6 39.2 0 29.58 0 0 0 NA
View 765176 Dec 30 2015 6:41:39am 40.64 55 25.7 88 25.25 26.6 39.2 0 29.58 0 0 0 NA
View 765175 Dec 30 2015 6:40:39am 40.64 54 25.7 88 25.25 26.6 39.2 0 29.58 0 0 0 NA
View 765229 Dec 30 2015 7:34:50am 40.46 52 25.88 87 24.8 26.6 39.2 0 29.6 0 0 0 NA
View 765228 Dec 30 2015 7:33:50am 40.46 52 25.88 88 24.8 26.6 39.2 0 29.6 0 0 0 NA
View 765227 Dec 30 2015 7:32:49am 40.46 54 25.88 88 24.8 26.6 39.2 0 29.6 0 0 0 NA
View 765223 Dec 30 2015 7:28:49am 40.46 52 25.88 89 24.8 26.6 39.2 0 29.6 0 0 0 NA
View 765234 Dec 30 2015 7:39:51am 40.28 53 26.06 86 24.8 26.6 39.2 0 29.6 0 0 0 NA
View 765233 Dec 30 2015 7:38:50am 40.28 53 26.06 86 24.8 26.6 39.2 0 29.6 0 0 0 NA
View 765232 Dec 30 2015 7:37:50am 40.28 53 26.06 86 24.8 26.6 39.2 0 29.6 0 0 0 NA
View 765230 Dec 30 2015 7:35:50am 40.46 53 26.06 87 24.8 26.6 39.2 0 29.6 0 0 0 NA
View 766672 Dec 31 2015 7:42:31am 40.46 51 29.48 53 27.95 29.75 39.2 0 29.76 0 0 0 NA
View 766666 Dec 31 2015 7:36:30am 40.46 52 29.48 53 27.95 29.75 39.2 0 29.75 0 0 0 NA
View 766665 Dec 31 2015 7:35:30am 40.46 50 29.48 53 27.95 29.75 39.2 0 29.75 0 0 0 NA
View 766664 Dec 31 2015 7:34:29am 40.46 51 29.48 53 27.95 29.75 39.2 0 29.76 0 0 0 NA
View 766662 Dec 31 2015 7:32:29am 40.46 51 29.48 53 27.95 29.75 39.2 0 29.75 0 0 0 NA
View 766661 Dec 31 2015 7:31:29am 40.46 50 29.48 53 27.95 29.75 39.2 0 29.75 0 0 0 NA
View 766659 Dec 31 2015 7:29:29am 40.46 51 29.48 54 27.95 29.75 39.2 0 29.75 0 0 0 NA
View 766671 Dec 31 2015 7:41:31am 40.28 49 29.66 53 27.95 29.75 39.2 0 29.76 0 0 0 NA
View 766668 Dec 31 2015 7:38:30am 40.46 53 29.66 53 27.95 29.75 39.2 0 29.76 0 0 0 NA
View 766663 Dec 31 2015 7:33:29am 40.46 48 29.66 53 27.95 29.75 39.2 0 29.76 0 0 0 NA
View 766660 Dec 31 2015 7:30:29am 40.46 52 29.66 54 27.95 29.75 39.2 0 29.75 0 0 0 NA
View 766658 Dec 31 2015 7:28:28am 40.46 52 29.66 54 27.95 29.75 39.2 0 29.75 0 0 0 NA
View 766657 Dec 31 2015 7:27:28am 40.46 50 29.66 54 27.95 29.75 39.2 0 29.75 0 0 0 NA
View 766656 Dec 31 2015 7:26:28am 40.46 51 29.66 54 27.95 29.75 39.2 0 29.75 0 0 0 NA
View 766655 Dec 31 2015 7:25:28am 40.28 49 29.66 54 27.95 29.75 39.2 0 29.75 0 0 0 NA
View 766654 Dec 31 2015 7:24:28am 40.46 50 29.66 53 27.95 29.75 39.2 0 29.75 0 0 0 NA
View 766653 Dec 31 2015 7:23:27am 40.46 51 29.66 54 27.95 29.75 39.2 0 29.75 0 0 0 NA
View 766652 Dec 31 2015 7:22:27am 40.46 51 29.66 53 27.95 29.75 39.2 0 29.74 0 0 0 NA
View 766651 Dec 31 2015 7:21:27am 40.46 51 29.66 53 27.95 29.75 39.2 0 29.74 0 0 0 NA
View 766650 Dec 31 2015 7:20:27am 40.46 49 29.66 54 27.95 29.75 39.2 0 29.74 0 0 0 NA
View 766618 Dec 31 2015 6:48:20am 40.46 54 29.84 53 27.95 29.75 39.2 0 29.74 0 0 0 NA
View 766183 Dec 30 2015 11:31:56pm 42.62 52 30.02 59 29.3 30.65 39.2 0 29.72 0 0 0 NA
View 766186 Dec 30 2015 11:34:57pm 42.62 54 30.2 61 29.3 30.65 39.2 0 29.72 0 0 0 NA
View 766185 Dec 30 2015 11:33:57pm 42.62 53 30.2 60 29.3 30.65 39.2 0 29.72 0 0 0 NA
View 766184 Dec 30 2015 11:32:56pm 42.62 51 30.2 60 29.3 30.65 39.2 0 29.72 0 0 0 NA
View 766176 Dec 30 2015 11:24:55pm 42.62 53 30.2 61 29.3 30.65 39.2 0 29.71 0 0 0 NA
View 766173 Dec 30 2015 11:21:54pm 42.8 52 30.2 61 29.3 30.65 39.2 0 29.71 0 0 0 NA
View 766172 Dec 30 2015 11:20:54pm 42.8 51 30.2 61 29.3 30.65 39.2 0 29.71 0 0 0 NA
View 765161 Dec 30 2015 6:26:37am 40.64 53 24.62 90 25.25 26.6 41 0 29.58 0 0 0 NA
View 765160 Dec 30 2015 6:25:37am 40.64 53 24.62 90 25.25 26.6 41 0 29.58 0 0 0 NA
View 765159 Dec 30 2015 6:24:36am 40.82 52 24.62 90 25.25 26.6 41 0 29.57 0 0 0 NA
View 765158 Dec 30 2015 6:23:36am 40.82 53 24.62 90 25.25 26.6 41 0 29.57 0 0 0 NA
View 765157 Dec 30 2015 6:22:36am 40.82 53 24.62 91 25.25 26.6 41 0 29.57 0 0 0 NA